sensor_id;sensor_type;location;lat;lon;timestamp;P1;durP1;ratioP1;P2;durP2;ratioP2
72569;SDS011;60594;50.204;8.844;2022-08-19T00:00:17;12.65;;;7.50;;
72569;SDS011;60594;50.204;8.844;2022-08-19T00:03:03;14.35;;;8.18;;
72569;SDS011;60594;50.204;8.844;2022-08-19T00:07:57;13.82;;;7.53;;
72569;SDS011;60594;50.204;8.844;2022-08-19T00:10:24;14.60;;;7.70;;
72569;SDS011;60594;50.204;8.844;2022-08-19T00:12:50;15.60;;;7.75;;
72569;SDS011;60594;50.204;8.844;2022-08-19T00:15:18;15.77;;;8.57;;
72569;SDS011;60594;50.204;8.844;2022-08-19T00:17:46;16.25;;;8.13;;
72569;SDS011;60594;50.204;8.844;2022-08-19T00:20:16;12.80;;;7.57;;
72569;SDS011;60594;50.204;8.844;2022-08-19T00:22:45;14.63;;;7.60;;
72569;SDS011;60594;50.204;8.844;2022-08-19T00:25:13;13.70;;;7.55;;
72569;SDS011;60594;50.204;8.844;2022-08-19T00:27:40;13.10;;;7.40;;
72569;SDS011;60594;50.204;8.844;2022-08-19T00:30:07;13.63;;;7.90;;
72569;SDS011;60594;50.204;8.844;2022-08-19T00:32:36;13.15;;;7.28;;
72569;SDS011;60594;50.204;8.844;2022-08-19T00:35:03;13.88;;;7.20;;
72569;SDS011;60594;50.204;8.844;2022-08-19T00:37:31;14.45;;;7.32;;
72569;SDS011;60594;50.204;8.844;2022-08-19T00:39:59;13.20;;;7.35;;
72569;SDS011;60594;50.204;8.844;2022-08-19T00:42:25;13.70;;;7.78;;
72569;SDS011;60594;50.204;8.844;2022-08-19T00:44:54;14.77;;;7.78;;
72569;SDS011;60594;50.204;8.844;2022-08-19T00:47:20;14.23;;;7.43;;
72569;SDS011;60594;50.204;8.844;2022-08-19T00:49:48;13.65;;;7.75;;
72569;SDS011;60594;50.204;8.844;2022-08-19T00:52:23;15.80;;;8.23;;
72569;SDS011;60594;50.204;8.844;2022-08-19T00:54:57;13.85;;;7.60;;
72569;SDS011;60594;50.204;8.844;2022-08-19T00:59:54;14.55;;;7.47;;
72569;SDS011;60594;50.204;8.844;2022-08-19T01:02:23;13.35;;;7.57;;
72569;SDS011;60594;50.204;8.844;2022-08-19T01:04:50;12.50;;;7.20;;
72569;SDS011;60594;50.204;8.844;2022-08-19T01:07:16;13.35;;;7.28;;
72569;SDS011;60594;50.204;8.844;2022-08-19T01:09:44;14.60;;;7.20;;
72569;SDS011;60594;50.204;8.844;2022-08-19T01:12:11;13.35;;;7.88;;
72569;SDS011;60594;50.204;8.844;2022-08-19T01:14:37;14.60;;;7.32;;
72569;SDS011;60594;50.204;8.844;2022-08-19T01:17:08;13.18;;;7.15;;
72569;SDS011;60594;50.204;8.844;2022-08-19T01:19:37;13.95;;;6.88;;
72569;SDS011;60594;50.204;8.844;2022-08-19T01:22:16;13.57;;;7.43;;
72569;SDS011;60594;50.204;8.844;2022-08-19T01:24:55;14.32;;;8.23;;
72569;SDS011;60594;50.204;8.844;2022-08-19T01:27:21;12.75;;;7.22;;
72569;SDS011;60594;50.204;8.844;2022-08-19T01:29:48;12.10;;;7.20;;
72569;SDS011;60594;50.204;8.844;2022-08-19T01:32:15;11.68;;;7.22;;
72569;SDS011;60594;50.204;8.844;2022-08-19T01:37:14;12.95;;;6.28;;
72569;SDS011;60594;50.204;8.844;2022-08-19T01:39:41;13.38;;;7.50;;
72569;SDS011;60594;50.204;8.844;2022-08-19T01:42:08;11.82;;;6.88;;
72569;SDS011;60594;50.204;8.844;2022-08-19T01:44:40;13.20;;;6.90;;
72569;SDS011;60594;50.204;8.844;2022-08-19T01:47:08;11.27;;;6.53;;
72569;SDS011;60594;50.204;8.844;2022-08-19T01:49:36;12.63;;;6.40;;
72569;SDS011;60594;50.204;8.844;2022-08-19T01:52:03;12.00;;;6.70;;
72569;SDS011;60594;50.204;8.844;2022-08-19T01:54:31;11.65;;;6.75;;
72569;SDS011;60594;50.204;8.844;2022-08-19T01:57:01;12.93;;;6.47;;
72569;SDS011;60594;50.204;8.844;2022-08-19T01:59:31;12.57;;;6.32;;
72569;SDS011;60594;50.204;8.844;2022-08-19T02:02:03;10.15;;;6.18;;
72569;SDS011;60594;50.204;8.844;2022-08-19T02:04:34;12.10;;;7.07;;
72569;SDS011;60594;50.204;8.844;2022-08-19T02:07:01;12.73;;;6.45;;
72569;SDS011;60594;50.204;8.844;2022-08-19T02:09:28;9.88;;;5.38;;
72569;SDS011;60594;50.204;8.844;2022-08-19T02:11:54;11.43;;;5.97;;
72569;SDS011;60594;50.204;8.844;2022-08-19T02:14:20;11.40;;;5.78;;
72569;SDS011;60594;50.204;8.844;2022-08-19T02:16:47;12.35;;;6.22;;
72569;SDS011;60594;50.204;8.844;2022-08-19T02:19:14;9.27;;;6.28;;
72569;SDS011;60594;50.204;8.844;2022-08-19T02:21:40;10.55;;;6.68;;
72569;SDS011;60594;50.204;8.844;2022-08-19T02:24:07;11.25;;;7.00;;
72569;SDS011;60594;50.204;8.844;2022-08-19T02:26:33;11.70;;;6.30;;
72569;SDS011;60594;50.204;8.844;2022-08-19T02:29:00;13.10;;;6.00;;
72569;SDS011;60594;50.204;8.844;2022-08-19T02:31:27;12.15;;;6.53;;
72569;SDS011;60594;50.204;8.844;2022-08-19T02:33:54;11.30;;;5.95;;
72569;SDS011;60594;50.204;8.844;2022-08-19T02:38:48;11.60;;;6.38;;
72569;SDS011;60594;50.204;8.844;2022-08-19T02:41:21;11.88;;;5.50;;
72569;SDS011;60594;50.204;8.844;2022-08-19T02:43:49;11.15;;;6.78;;
72569;SDS011;60594;50.204;8.844;2022-08-19T02:46:23;10.13;;;5.60;;
72569;SDS011;60594;50.204;8.844;2022-08-19T02:48:53;9.93;;;5.65;;
72569;SDS011;60594;50.204;8.844;2022-08-19T02:51:30;10.38;;;5.85;;
72569;SDS011;60594;50.204;8.844;2022-08-19T02:53:58;10.57;;;5.95;;
72569;SDS011;60594;50.204;8.844;2022-08-19T02:56:25;9.60;;;5.55;;
72569;SDS011;60594;50.204;8.844;2022-08-19T02:58:54;12.65;;;6.85;;
72569;SDS011;60594;50.204;8.844;2022-08-19T03:01:31;9.90;;;6.07;;
72569;SDS011;60594;50.204;8.844;2022-08-19T03:04:00;10.70;;;6.38;;
72569;SDS011;60594;50.204;8.844;2022-08-19T03:06:28;11.00;;;6.43;;
72569;SDS011;60594;50.204;8.844;2022-08-19T03:08:55;9.93;;;5.78;;
72569;SDS011;60594;50.204;8.844;2022-08-19T03:13:50;12.57;;;6.20;;
72569;SDS011;60594;50.204;8.844;2022-08-19T03:16:17;10.27;;;5.60;;
72569;SDS011;60594;50.204;8.844;2022-08-19T03:18:45;9.18;;;5.18;;
72569;SDS011;60594;50.204;8.844;2022-08-19T03:21:19;8.70;;;5.82;;
72569;SDS011;60594;50.204;8.844;2022-08-19T03:23:48;11.48;;;5.90;;
72569;SDS011;60594;50.204;8.844;2022-08-19T03:26:14;10.80;;;5.85;;
72569;SDS011;60594;50.204;8.844;2022-08-19T03:28:42;10.43;;;5.82;;
72569;SDS011;60594;50.204;8.844;2022-08-19T03:31:11;9.75;;;6.18;;
72569;SDS011;60594;50.204;8.844;2022-08-19T03:33:40;11.75;;;5.63;;
72569;SDS011;60594;50.204;8.844;2022-08-19T03:36:08;11.32;;;5.40;;
72569;SDS011;60594;50.204;8.844;2022-08-19T03:38:38;10.70;;;6.00;;
72569;SDS011;60594;50.204;8.844;2022-08-19T03:41:08;9.68;;;5.97;;
72569;SDS011;60594;50.204;8.844;2022-08-19T03:43:40;11.88;;;5.88;;
72569;SDS011;60594;50.204;8.844;2022-08-19T03:46:09;11.00;;;6.18;;
72569;SDS011;60594;50.204;8.844;2022-08-19T03:48:38;10.95;;;5.68;;
72569;SDS011;60594;50.204;8.844;2022-08-19T03:51:08;11.05;;;5.72;;
72569;SDS011;60594;50.204;8.844;2022-08-19T03:53:42;11.60;;;6.53;;
72569;SDS011;60594;50.204;8.844;2022-08-19T03:56:09;11.20;;;6.47;;
72569;SDS011;60594;50.204;8.844;2022-08-19T03:58:36;10.60;;;6.20;;
72569;SDS011;60594;50.204;8.844;2022-08-19T04:01:06;11.10;;;6.38;;
72569;SDS011;60594;50.204;8.844;2022-08-19T04:03:35;10.02;;;6.18;;
72569;SDS011;60594;50.204;8.844;2022-08-19T04:06:11;11.73;;;6.45;;
72569;SDS011;60594;50.204;8.844;2022-08-19T04:09:01;11.55;;;6.45;;
72569;SDS011;60594;50.204;8.844;2022-08-19T04:11:34;11.57;;;6.35;;
72569;SDS011;60594;50.204;8.844;2022-08-19T04:14:06;11.60;;;6.25;;
72569;SDS011;60594;50.204;8.844;2022-08-19T04:16:34;11.68;;;6.07;;
72569;SDS011;60594;50.204;8.844;2022-08-19T04:19:02;11.40;;;6.22;;
72569;SDS011;60594;50.204;8.844;2022-08-19T04:21:30;10.95;;;5.72;;
72569;SDS011;60594;50.204;8.844;2022-08-19T04:23:57;12.68;;;6.45;;
72569;SDS011;60594;50.204;8.844;2022-08-19T04:26:25;10.82;;;6.47;;
72569;SDS011;60594;50.204;8.844;2022-08-19T04:28:56;11.25;;;6.28;;
72569;SDS011;60594;50.204;8.844;2022-08-19T04:31:27;11.02;;;5.90;;
72569;SDS011;60594;50.204;8.844;2022-08-19T04:33:56;10.77;;;5.78;;
72569;SDS011;60594;50.204;8.844;2022-08-19T04:36:25;12.07;;;6.68;;
72569;SDS011;60594;50.204;8.844;2022-08-19T04:38:56;11.80;;;6.53;;
72569;SDS011;60594;50.204;8.844;2022-08-19T04:41:24;11.75;;;5.88;;
72569;SDS011;60594;50.204;8.844;2022-08-19T04:44:10;11.50;;;6.28;;
72569;SDS011;60594;50.204;8.844;2022-08-19T04:46:39;11.30;;;6.00;;
72569;SDS011;60594;50.204;8.844;2022-08-19T04:49:07;10.98;;;6.00;;
72569;SDS011;60594;50.204;8.844;2022-08-19T04:51:35;11.63;;;5.93;;
72569;SDS011;60594;50.204;8.844;2022-08-19T04:54:03;10.45;;;5.57;;
72569;SDS011;60594;50.204;8.844;2022-08-19T04:56:29;10.00;;;5.82;;
72569;SDS011;60594;50.204;8.844;2022-08-19T04:58:56;9.52;;;5.93;;
72569;SDS011;60594;50.204;8.844;2022-08-19T05:01:30;10.75;;;5.90;;
72569;SDS011;60594;50.204;8.844;2022-08-19T05:04:03;11.02;;;5.60;;
72569;SDS011;60594;50.204;8.844;2022-08-19T05:06:31;10.43;;;5.53;;
72569;SDS011;60594;50.204;8.844;2022-08-19T05:09:00;9.13;;;5.55;;
72569;SDS011;60594;50.204;8.844;2022-08-19T05:11:29;9.70;;;5.57;;
72569;SDS011;60594;50.204;8.844;2022-08-19T05:13:58;8.90;;;5.72;;
72569;SDS011;60594;50.204;8.844;2022-08-19T05:16:25;11.20;;;5.50;;
72569;SDS011;60594;50.204;8.844;2022-08-19T05:21:39;10.57;;;5.38;;
72569;SDS011;60594;50.204;8.844;2022-08-19T05:24:34;10.05;;;5.75;;
72569;SDS011;60594;50.204;8.844;2022-08-19T05:27:00;9.50;;;5.63;;
72569;SDS011;60594;50.204;8.844;2022-08-19T05:29:28;9.27;;;5.80;;
72569;SDS011;60594;50.204;8.844;2022-08-19T05:31:57;10.55;;;6.43;;
72569;SDS011;60594;50.204;8.844;2022-08-19T05:34:26;9.50;;;5.75;;
72569;SDS011;60594;50.204;8.844;2022-08-19T05:36:54;12.20;;;6.10;;
72569;SDS011;60594;50.204;8.844;2022-08-19T05:39:25;11.38;;;5.60;;
72569;SDS011;60594;50.204;8.844;2022-08-19T05:41:57;9.25;;;5.65;;
72569;SDS011;60594;50.204;8.844;2022-08-19T05:44:27;9.18;;;5.00;;
72569;SDS011;60594;50.204;8.844;2022-08-19T05:46:59;10.60;;;5.97;;
72569;SDS011;60594;50.204;8.844;2022-08-19T05:49:27;9.45;;;5.40;;
72569;SDS011;60594;50.204;8.844;2022-08-19T05:51:54;9.73;;;5.53;;
72569;SDS011;60594;50.204;8.844;2022-08-19T05:54:22;12.05;;;5.43;;
72569;SDS011;60594;50.204;8.844;2022-08-19T05:56:50;9.52;;;6.07;;
72569;SDS011;60594;50.204;8.844;2022-08-19T05:59:18;10.70;;;6.00;;
72569;SDS011;60594;50.204;8.844;2022-08-19T06:01:47;9.75;;;5.30;;
72569;SDS011;60594;50.204;8.844;2022-08-19T06:04:21;9.45;;;5.53;;
72569;SDS011;60594;50.204;8.844;2022-08-19T06:06:50;9.88;;;5.32;;
72569;SDS011;60594;50.204;8.844;2022-08-19T06:09:18;9.20;;;5.38;;
72569;SDS011;60594;50.204;8.844;2022-08-19T06:11:47;8.70;;;5.10;;
72569;SDS011;60594;50.204;8.844;2022-08-19T06:14:17;10.07;;;6.32;;
72569;SDS011;60594;50.204;8.844;2022-08-19T06:16:45;9.18;;;5.35;;
72569;SDS011;60594;50.204;8.844;2022-08-19T06:19:13;10.15;;;5.78;;
72569;SDS011;60594;50.204;8.844;2022-08-19T06:21:43;9.07;;;4.53;;
72569;SDS011;60594;50.204;8.844;2022-08-19T06:24:13;9.38;;;5.50;;
72569;SDS011;60594;50.204;8.844;2022-08-19T06:26:43;11.18;;;5.35;;
72569;SDS011;60594;50.204;8.844;2022-08-19T06:29:12;10.00;;;5.25;;
72569;SDS011;60594;50.204;8.844;2022-08-19T06:31:41;9.85;;;5.20;;
72569;SDS011;60594;50.204;8.844;2022-08-19T06:34:09;8.98;;;5.03;;
72569;SDS011;60594;50.204;8.844;2022-08-19T06:39:07;8.90;;;5.07;;
72569;SDS011;60594;50.204;8.844;2022-08-19T06:41:39;8.77;;;4.70;;
72569;SDS011;60594;50.204;8.844;2022-08-19T06:44:14;9.50;;;4.80;;
72569;SDS011;60594;50.204;8.844;2022-08-19T06:46:43;6.88;;;3.78;;
72569;SDS011;60594;50.204;8.844;2022-08-19T06:49:10;8.55;;;4.70;;
72569;SDS011;60594;50.204;8.844;2022-08-19T06:51:46;7.20;;;4.35;;
72569;SDS011;60594;50.204;8.844;2022-08-19T06:54:18;10.18;;;4.65;;
72569;SDS011;60594;50.204;8.844;2022-08-19T06:56:44;8.57;;;4.57;;
72569;SDS011;60594;50.204;8.844;2022-08-19T06:59:15;7.05;;;4.10;;
72569;SDS011;60594;50.204;8.844;2022-08-19T07:01:45;9.48;;;4.53;;
72569;SDS011;60594;50.204;8.844;2022-08-19T07:04:15;6.88;;;4.40;;
72569;SDS011;60594;50.204;8.844;2022-08-19T07:06:44;7.47;;;4.03;;
72569;SDS011;60594;50.204;8.844;2022-08-19T07:09:12;9.77;;;4.35;;
72569;SDS011;60594;50.204;8.844;2022-08-19T07:11:47;7.35;;;4.18;;
72569;SDS011;60594;50.204;8.844;2022-08-19T07:14:15;8.02;;;3.83;;
72569;SDS011;60594;50.204;8.844;2022-08-19T07:16:50;6.88;;;3.65;;
72569;SDS011;60594;50.204;8.844;2022-08-19T07:19:18;8.10;;;3.85;;
72569;SDS011;60594;50.204;8.844;2022-08-19T07:21:48;8.27;;;3.95;;
72569;SDS011;60594;50.204;8.844;2022-08-19T07:24:24;7.03;;;3.83;;
72569;SDS011;60594;50.204;8.844;2022-08-19T07:26:54;7.55;;;4.05;;
72569;SDS011;60594;50.204;8.844;2022-08-19T07:29:23;6.55;;;3.55;;
72569;SDS011;60594;50.204;8.844;2022-08-19T07:31:52;7.53;;;3.88;;
72569;SDS011;60594;50.204;8.844;2022-08-19T07:34:24;7.10;;;3.72;;
72569;SDS011;60594;50.204;8.844;2022-08-19T07:36:52;9.25;;;4.40;;
72569;SDS011;60594;50.204;8.844;2022-08-19T07:39:21;8.32;;;4.13;;
72569;SDS011;60594;50.204;8.844;2022-08-19T07:41:51;7.57;;;3.97;;
72569;SDS011;60594;50.204;8.844;2022-08-19T07:44:18;8.43;;;3.90;;
72569;SDS011;60594;50.204;8.844;2022-08-19T07:46:47;6.68;;;3.70;;
72569;SDS011;60594;50.204;8.844;2022-08-19T07:49:18;7.80;;;4.10;;
72569;SDS011;60594;50.204;8.844;2022-08-19T07:51:46;7.72;;;4.30;;
72569;SDS011;60594;50.204;8.844;2022-08-19T07:54:15;6.65;;;4.13;;
72569;SDS011;60594;50.204;8.844;2022-08-19T07:56:42;6.25;;;3.38;;
72569;SDS011;60594;50.204;8.844;2022-08-19T07:59:09;5.55;;;3.45;;
72569;SDS011;60594;50.204;8.844;2022-08-19T08:01:35;7.03;;;3.58;;
72569;SDS011;60594;50.204;8.844;2022-08-19T08:04:02;6.28;;;3.30;;
72569;SDS011;60594;50.204;8.844;2022-08-19T08:06:47;8.45;;;3.53;;
72569;SDS011;60594;50.204;8.844;2022-08-19T08:09:35;6.43;;;3.75;;
72569;SDS011;60594;50.204;8.844;2022-08-19T08:12:10;4.97;;;3.17;;
72569;SDS011;60594;50.204;8.844;2022-08-19T08:17:18;6.50;;;3.53;;
72569;SDS011;60594;50.204;8.844;2022-08-19T08:19:47;6.45;;;3.55;;
72569;SDS011;60594;50.204;8.844;2022-08-19T08:22:17;5.05;;;2.85;;
72569;SDS011;60594;50.204;8.844;2022-08-19T08:25:10;8.90;;;3.80;;
72569;SDS011;60594;50.204;8.844;2022-08-19T08:27:42;6.82;;;3.15;;
72569;SDS011;60594;50.204;8.844;2022-08-19T08:30:11;6.10;;;3.78;;
72569;SDS011;60594;50.204;8.844;2022-08-19T08:32:43;5.85;;;3.58;;
72569;SDS011;60594;50.204;8.844;2022-08-19T08:35:12;5.78;;;3.08;;
72569;SDS011;60594;50.204;8.844;2022-08-19T08:37:41;5.68;;;3.15;;
72569;SDS011;60594;50.204;8.844;2022-08-19T08:40:55;5.20;;;3.08;;
72569;SDS011;60594;50.204;8.844;2022-08-19T08:46:03;4.88;;;3.10;;
72569;SDS011;60594;50.204;8.844;2022-08-19T08:48:44;6.55;;;3.40;;
72569;SDS011;60594;50.204;8.844;2022-08-19T08:51:15;6.80;;;3.67;;
72569;SDS011;60594;50.204;8.844;2022-08-19T08:53:50;6.93;;;4.05;;
72569;SDS011;60594;50.204;8.844;2022-08-19T08:58:53;5.55;;;3.05;;
72569;SDS011;60594;50.204;8.844;2022-08-19T09:01:22;10.43;;;4.15;;
72569;SDS011;60594;50.204;8.844;2022-08-19T09:03:49;6.38;;;3.30;;
72569;SDS011;60594;50.204;8.844;2022-08-19T09:09:18;6.10;;;3.45;;
72569;SDS011;60594;50.204;8.844;2022-08-19T09:14:39;7.10;;;3.78;;
72569;SDS011;60594;50.204;8.844;2022-08-19T09:17:15;6.68;;;4.03;;
72569;SDS011;60594;50.204;8.844;2022-08-19T09:20:26;6.03;;;3.42;;
72569;SDS011;60594;50.204;8.844;2022-08-19T09:22:40;6.85;;;3.92;;
72569;SDS011;60594;50.204;8.844;2022-08-19T09:25:16;7.55;;;3.67;;
72569;SDS011;60594;50.204;8.844;2022-08-19T09:27:44;6.28;;;3.70;;
72569;SDS011;60594;50.204;8.844;2022-08-19T09:30:13;5.53;;;3.10;;
72569;SDS011;60594;50.204;8.844;2022-08-19T09:32:44;5.95;;;3.25;;
72569;SDS011;60594;50.204;8.844;2022-08-19T09:35:12;6.60;;;3.80;;
72569;SDS011;60594;50.204;8.844;2022-08-19T09:37:40;6.95;;;3.50;;
72569;SDS011;60594;50.204;8.844;2022-08-19T09:40:09;5.70;;;3.33;;
72569;SDS011;60594;50.204;8.844;2022-08-19T09:42:37;5.85;;;3.33;;
72569;SDS011;60594;50.204;8.844;2022-08-19T09:45:03;6.47;;;3.10;;
72569;SDS011;60594;50.204;8.844;2022-08-19T09:49:58;5.07;;;3.20;;
72569;SDS011;60594;50.204;8.844;2022-08-19T09:52:25;6.20;;;3.33;;
72569;SDS011;60594;50.204;8.844;2022-08-19T09:54:52;5.78;;;3.10;;
72569;SDS011;60594;50.204;8.844;2022-08-19T09:57:19;5.68;;;3.22;;
72569;SDS011;60594;50.204;8.844;2022-08-19T09:59:47;5.50;;;3.35;;
72569;SDS011;60594;50.204;8.844;2022-08-19T10:02:14;5.28;;;3.05;;
72569;SDS011;60594;50.204;8.844;2022-08-19T10:04:41;5.32;;;3.35;;
72569;SDS011;60594;50.204;8.844;2022-08-19T10:07:26;5.32;;;3.15;;
72569;SDS011;60594;50.204;8.844;2022-08-19T10:09:52;7.90;;;3.40;;
72569;SDS011;60594;50.204;8.844;2022-08-19T10:12:19;6.35;;;3.20;;
72569;SDS011;60594;50.204;8.844;2022-08-19T10:14:47;6.15;;;3.42;;
72569;SDS011;60594;50.204;8.844;2022-08-19T10:17:13;5.75;;;3.15;;
72569;SDS011;60594;50.204;8.844;2022-08-19T10:19:40;4.88;;;3.13;;
72569;SDS011;60594;50.204;8.844;2022-08-19T10:22:07;7.30;;;3.20;;
72569;SDS011;60594;50.204;8.844;2022-08-19T10:24:34;6.00;;;3.58;;
72569;SDS011;60594;50.204;8.844;2022-08-19T10:27:01;5.40;;;2.95;;
72569;SDS011;60594;50.204;8.844;2022-08-19T10:29:32;6.05;;;3.28;;
72569;SDS011;60594;50.204;8.844;2022-08-19T10:32:01;6.38;;;3.20;;
72569;SDS011;60594;50.204;8.844;2022-08-19T10:34:31;4.60;;;2.85;;
72569;SDS011;60594;50.204;8.844;2022-08-19T10:36:58;6.05;;;3.22;;
72569;SDS011;60594;50.204;8.844;2022-08-19T10:39:26;5.55;;;3.20;;
72569;SDS011;60594;50.204;8.844;2022-08-19T10:41:58;6.05;;;3.30;;
72569;SDS011;60594;50.204;8.844;2022-08-19T10:44:25;5.82;;;3.20;;
72569;SDS011;60594;50.204;8.844;2022-08-19T10:46:51;5.35;;;3.13;;
72569;SDS011;60594;50.204;8.844;2022-08-19T10:49:18;5.32;;;3.50;;
72569;SDS011;60594;50.204;8.844;2022-08-19T10:51:51;5.78;;;3.40;;
72569;SDS011;60594;50.204;8.844;2022-08-19T10:54:38;5.13;;;3.30;;
72569;SDS011;60594;50.204;8.844;2022-08-19T10:57:24;5.20;;;3.10;;
72569;SDS011;60594;50.204;8.844;2022-08-19T10:59:55;4.85;;;3.20;;
72569;SDS011;60594;50.204;8.844;2022-08-19T11:02:22;5.15;;;2.90;;
72569;SDS011;60594;50.204;8.844;2022-08-19T11:04:49;5.20;;;3.17;;
72569;SDS011;60594;50.204;8.844;2022-08-19T11:07:17;5.65;;;2.92;;
72569;SDS011;60594;50.204;8.844;2022-08-19T11:09:44;4.78;;;2.88;;
72569;SDS011;60594;50.204;8.844;2022-08-19T11:12:12;4.93;;;2.80;;
72569;SDS011;60594;50.204;8.844;2022-08-19T11:14:41;4.90;;;2.92;;
72569;SDS011;60594;50.204;8.844;2022-08-19T11:17:08;4.68;;;3.03;;
72569;SDS011;60594;50.204;8.844;2022-08-19T11:19:37;5.32;;;2.90;;
72569;SDS011;60594;50.204;8.844;2022-08-19T11:22:06;5.70;;;3.15;;
72569;SDS011;60594;50.204;8.844;2022-08-19T11:24:34;5.22;;;3.25;;
72569;SDS011;60594;50.204;8.844;2022-08-19T11:27:08;6.03;;;3.15;;
72569;SDS011;60594;50.204;8.844;2022-08-19T11:29:37;5.65;;;3.65;;
72569;SDS011;60594;50.204;8.844;2022-08-19T11:32:05;4.70;;;3.10;;
72569;SDS011;60594;50.204;8.844;2022-08-19T11:34:33;5.93;;;2.78;;
72569;SDS011;60594;50.204;8.844;2022-08-19T11:39:30;4.75;;;3.03;;
72569;SDS011;60594;50.204;8.844;2022-08-19T11:41:57;5.38;;;2.83;;
72569;SDS011;60594;50.204;8.844;2022-08-19T11:44:25;4.72;;;2.92;;
72569;SDS011;60594;50.204;8.844;2022-08-19T11:46:52;6.55;;;3.70;;
72569;SDS011;60594;50.204;8.844;2022-08-19T11:49:19;4.22;;;2.53;;
72569;SDS011;60594;50.204;8.844;2022-08-19T11:51:47;5.28;;;3.13;;
72569;SDS011;60594;50.204;8.844;2022-08-19T11:54:18;4.60;;;3.17;;
72569;SDS011;60594;50.204;8.844;2022-08-19T11:56:45;4.60;;;3.30;;
72569;SDS011;60594;50.204;8.844;2022-08-19T11:59:13;4.97;;;3.83;;
72569;SDS011;60594;50.204;8.844;2022-08-19T12:01:40;4.78;;;3.05;;
72569;SDS011;60594;50.204;8.844;2022-08-19T12:04:08;4.93;;;3.17;;
72569;SDS011;60594;50.204;8.844;2022-08-19T12:06:36;4.93;;;3.08;;
72569;SDS011;60594;50.204;8.844;2022-08-19T12:09:05;4.78;;;3.10;;
72569;SDS011;60594;50.204;8.844;2022-08-19T12:11:36;5.93;;;3.10;;
72569;SDS011;60594;50.204;8.844;2022-08-19T12:14:04;4.60;;;2.92;;
72569;SDS011;60594;50.204;8.844;2022-08-19T12:16:32;4.82;;;3.05;;
72569;SDS011;60594;50.204;8.844;2022-08-19T12:19:00;5.10;;;3.55;;
72569;SDS011;60594;50.204;8.844;2022-08-19T12:21:30;5.20;;;3.42;;
72569;SDS011;60594;50.204;8.844;2022-08-19T12:23:59;5.00;;;3.55;;
72569;SDS011;60594;50.204;8.844;2022-08-19T12:26:27;5.00;;;3.47;;
72569;SDS011;60594;50.204;8.844;2022-08-19T12:28:55;5.38;;;3.78;;
72569;SDS011;60594;50.204;8.844;2022-08-19T12:31:22;5.85;;;3.80;;
72569;SDS011;60594;50.204;8.844;2022-08-19T12:33:48;5.93;;;4.18;;
72569;SDS011;60594;50.204;8.844;2022-08-19T12:36:15;7.63;;;4.32;;
72569;SDS011;60594;50.204;8.844;2022-08-19T12:38:43;6.38;;;4.15;;
72569;SDS011;60594;50.204;8.844;2022-08-19T12:41:11;6.25;;;4.30;;
72569;SDS011;60594;50.204;8.844;2022-08-19T12:43:41;5.97;;;4.38;;
72569;SDS011;60594;50.204;8.844;2022-08-19T12:46:08;6.57;;;4.25;;
72569;SDS011;60594;50.204;8.844;2022-08-19T12:48:36;6.55;;;4.32;;
72569;SDS011;60594;50.204;8.844;2022-08-19T12:51:07;6.40;;;4.15;;
72569;SDS011;60594;50.204;8.844;2022-08-19T12:53:43;5.90;;;3.80;;
72569;SDS011;60594;50.204;8.844;2022-08-19T12:56:10;5.40;;;3.92;;
72569;SDS011;60594;50.204;8.844;2022-08-19T12:58:37;6.70;;;4.50;;
72569;SDS011;60594;50.204;8.844;2022-08-19T13:01:09;6.95;;;4.38;;
72569;SDS011;60594;50.204;8.844;2022-08-19T13:03:38;6.13;;;4.22;;
72569;SDS011;60594;50.204;8.844;2022-08-19T13:08:31;6.22;;;4.10;;
72569;SDS011;60594;50.204;8.844;2022-08-19T13:11:06;7.22;;;4.20;;
72569;SDS011;60594;50.204;8.844;2022-08-19T13:13:38;7.10;;;4.40;;
72569;SDS011;60594;50.204;8.844;2022-08-19T13:16:07;6.22;;;3.97;;
72569;SDS011;60594;50.204;8.844;2022-08-19T13:18:37;5.72;;;3.88;;
72569;SDS011;60594;50.204;8.844;2022-08-19T13:21:07;7.72;;;4.30;;
72569;SDS011;60594;50.204;8.844;2022-08-19T13:23:35;7.63;;;4.43;;
72569;SDS011;60594;50.204;8.844;2022-08-19T13:26:03;5.75;;;4.03;;
72569;SDS011;60594;50.204;8.844;2022-08-19T13:28:31;6.85;;;4.78;;
72569;SDS011;60594;50.204;8.844;2022-08-19T13:34:03;6.47;;;4.43;;
72569;SDS011;60594;50.204;8.844;2022-08-19T13:36:32;7.05;;;4.78;;
72569;SDS011;60594;50.204;8.844;2022-08-19T13:41:26;6.90;;;4.40;;
72569;SDS011;60594;50.204;8.844;2022-08-19T13:43:53;7.13;;;4.55;;
72569;SDS011;60594;50.204;8.844;2022-08-19T13:46:20;6.00;;;4.32;;
72569;SDS011;60594;50.204;8.844;2022-08-19T13:48:47;5.70;;;3.92;;
72569;SDS011;60594;50.204;8.844;2022-08-19T13:51:16;6.97;;;4.53;;
72569;SDS011;60594;50.204;8.844;2022-08-19T13:53:44;5.93;;;4.35;;
72569;SDS011;60594;50.204;8.844;2022-08-19T13:56:12;7.18;;;4.53;;
72569;SDS011;60594;50.204;8.844;2022-08-19T13:58:40;6.30;;;4.47;;
72569;SDS011;60594;50.204;8.844;2022-08-19T14:01:07;6.95;;;4.30;;
72569;SDS011;60594;50.204;8.844;2022-08-19T14:03:34;5.97;;;4.32;;
72569;SDS011;60594;50.204;8.844;2022-08-19T14:06:01;6.82;;;4.22;;
72569;SDS011;60594;50.204;8.844;2022-08-19T14:08:29;6.57;;;4.72;;
72569;SDS011;60594;50.204;8.844;2022-08-19T14:10:58;6.50;;;4.63;;
72569;SDS011;60594;50.204;8.844;2022-08-19T14:13:28;6.90;;;4.65;;
72569;SDS011;60594;50.204;8.844;2022-08-19T14:15:55;6.80;;;4.55;;
72569;SDS011;60594;50.204;8.844;2022-08-19T14:18:25;6.38;;;4.15;;
72569;SDS011;60594;50.204;8.844;2022-08-19T14:20:54;7.78;;;4.57;;
72569;SDS011;60594;50.204;8.844;2022-08-19T14:23:22;7.07;;;4.53;;
72569;SDS011;60594;50.204;8.844;2022-08-19T14:26:02;6.93;;;4.93;;
72569;SDS011;60594;50.204;8.844;2022-08-19T14:28:33;7.63;;;4.32;;
72569;SDS011;60594;50.204;8.844;2022-08-19T14:31:00;6.72;;;4.70;;
72569;SDS011;60594;50.204;8.844;2022-08-19T14:33:27;6.68;;;4.93;;
72569;SDS011;60594;50.204;8.844;2022-08-19T14:35:53;6.93;;;4.57;;
72569;SDS011;60594;50.204;8.844;2022-08-19T14:38:20;7.35;;;4.70;;
72569;SDS011;60594;50.204;8.844;2022-08-19T14:40:47;6.35;;;4.65;;
72569;SDS011;60594;50.204;8.844;2022-08-19T14:43:14;8.55;;;5.03;;
72569;SDS011;60594;50.204;8.844;2022-08-19T14:45:42;7.25;;;4.95;;
72569;SDS011;60594;50.204;8.844;2022-08-19T14:50:36;7.07;;;4.68;;
72569;SDS011;60594;50.204;8.844;2022-08-19T14:53:04;7.00;;;4.88;;
72569;SDS011;60594;50.204;8.844;2022-08-19T14:55:35;7.18;;;5.00;;
72569;SDS011;60594;50.204;8.844;2022-08-19T14:58:01;6.90;;;5.10;;
72569;SDS011;60594;50.204;8.844;2022-08-19T15:00:28;6.57;;;4.75;;
72569;SDS011;60594;50.204;8.844;2022-08-19T15:02:56;6.90;;;5.05;;
72569;SDS011;60594;50.204;8.844;2022-08-19T15:05:23;6.57;;;4.90;;
72569;SDS011;60594;50.204;8.844;2022-08-19T15:07:50;7.75;;;4.53;;
72569;SDS011;60594;50.204;8.844;2022-08-19T15:10:16;7.30;;;4.60;;
72569;SDS011;60594;50.204;8.844;2022-08-19T15:12:44;8.10;;;4.57;;
72569;SDS011;60594;50.204;8.844;2022-08-19T15:15:12;7.30;;;4.97;;
72569;SDS011;60594;50.204;8.844;2022-08-19T15:17:40;5.45;;;3.65;;
72569;SDS011;60594;50.204;8.844;2022-08-19T15:20:07;6.50;;;3.97;;
72569;SDS011;60594;50.204;8.844;2022-08-19T15:22:37;6.07;;;4.50;;
72569;SDS011;60594;50.204;8.844;2022-08-19T15:25:05;6.78;;;4.43;;
72569;SDS011;60594;50.204;8.844;2022-08-19T15:27:36;6.40;;;4.20;;
72569;SDS011;60594;50.204;8.844;2022-08-19T15:30:03;5.63;;;3.85;;
72569;SDS011;60594;50.204;8.844;2022-08-19T15:32:31;7.50;;;4.07;;
72569;SDS011;60594;50.204;8.844;2022-08-19T15:34:57;6.20;;;3.92;;
72569;SDS011;60594;50.204;8.844;2022-08-19T15:37:24;4.97;;;3.40;;
72569;SDS011;60594;50.204;8.844;2022-08-19T15:39:50;6.50;;;4.30;;
72569;SDS011;60594;50.204;8.844;2022-08-19T15:42:17;6.03;;;4.07;;